createdAt,value
2018-01-21T00:01:50.457Z,17.57
2018-01-21T00:03:51.490Z,17.80
2018-01-21T00:08:20.830Z,18.63
2018-01-21T00:15:17.525Z,18.57
2018-01-21T00:17:18.576Z,19.80
2018-01-21T00:19:19.599Z,18.97
2018-01-21T00:26:16.483Z,18.53
2018-01-21T00:30:55.307Z,18.70
2018-01-21T00:32:56.368Z,21.00
2018-01-21T00:37:26.324Z,20.23
2018-01-21T00:39:30.671Z,21.47
2018-01-21T00:41:31.900Z,20.10
2018-01-21T00:43:33.204Z,21.50
2018-01-21T00:45:35.444Z,21.70
2018-01-21T00:47:50.225Z,19.80
2018-01-21T00:49:51.251Z,20.20
2018-01-21T00:51:52.290Z,18.97
2018-01-21T00:53:53.295Z,19.03
2018-01-21T00:55:54.337Z,20.30
2018-01-21T01:00:23.781Z,19.40
2018-01-21T01:02:25.013Z,20.00
2018-01-21T01:04:26.149Z,20.37
2018-01-21T01:06:27.132Z,21.23
2018-01-21T01:08:28.147Z,21.53
2018-01-21T01:10:50.949Z,18.47
2018-01-21T01:12:51.920Z,19.50
2018-01-21T01:14:53.038Z,21.07
2018-01-21T01:17:00.123Z,20.17
2018-01-21T01:21:39.902Z,20.10
2018-01-21T01:23:41.045Z,20.37
2018-01-21T01:25:42.238Z,21.23
2018-01-21T01:32:47.976Z,23.30
2018-01-21T01:34:49.108Z,21.83
2018-01-21T01:36:50.093Z,22.10
2018-01-21T01:38:51.174Z,22.70
2018-01-21T01:40:52.123Z,20.10
2018-01-21T01:42:53.209Z,20.67
2018-01-21T01:44:54.179Z,22.10
2018-01-21T01:46:55.116Z,20.30
2018-01-21T01:49:02.812Z,20.90
2018-01-21T01:56:01.807Z,21.00
2018-01-21T01:58:02.775Z,24.67
2018-01-21T02:00:03.874Z,22.10
2018-01-21T02:02:04.863Z,22.10
2018-01-21T02:04:05.908Z,20.80
2018-01-21T02:06:06.891Z,21.80
2018-01-21T02:08:09.183Z,19.83
2018-01-21T02:10:11.084Z,20.30
2018-01-21T02:12:12.082Z,21.50
2018-01-21T02:14:13.089Z,19.60
2018-01-21T02:16:22.767Z,20.13
2018-01-21T02:18:31.991Z,19.90
2018-01-21T02:25:32.175Z,17.50
2018-01-21T02:56:33.473Z,19.07
2018-01-21T03:01:32.377Z,20.83
2018-01-21T03:03:33.549Z,20.90
2018-01-21T03:05:34.727Z,20.63
2018-01-21T03:10:13.730Z,20.80
2018-01-21T03:12:14.896Z,22.33
2018-01-21T03:14:19.441Z,22.87
2018-01-21T03:16:28.663Z,22.80
2018-01-21T03:21:00.539Z,20.87
2018-01-21T03:23:01.616Z,20.83
2018-01-21T03:25:02.589Z,22.00
2018-01-21T03:29:31.784Z,21.67
2018-01-21T03:34:00.965Z,22.73
2018-01-21T03:36:02.000Z,23.03
2018-01-21T03:38:03.202Z,22.03
2018-01-21T03:40:04.239Z,21.20
2018-01-21T03:42:05.238Z,22.57
2018-01-21T03:44:27.084Z,22.50
2018-01-21T03:46:28.191Z,20.87
2018-01-21T03:48:29.139Z,21.30
2018-01-21T03:50:30.164Z,22.50
2018-01-21T03:52:31.259Z,22.23
2018-01-21T03:57:08.520Z,23.50
2018-01-21T03:59:09.483Z,22.10
2018-01-21T04:01:10.506Z,23.33
2018-01-21T04:03:11.484Z,22.30
2018-01-21T04:05:13.062Z,23.10
2018-01-21T04:07:14.085Z,21.97
2018-01-21T04:09:15.173Z,23.83
2018-01-21T04:11:16.296Z,24.00
2018-01-21T04:13:17.323Z,22.30
2018-01-21T04:15:18.356Z,20.97
2018-01-21T04:17:19.330Z,23.47
2018-01-21T04:19:20.315Z,25.60
2018-01-21T04:21:21.338Z,24.80
2018-01-21T04:23:22.455Z,23.73
2018-01-21T04:25:23.480Z,23.67
2018-01-21T04:27:25.540Z,25.60
2018-01-21T04:29:26.613Z,27.03
2018-01-21T04:31:27.816Z,23.70
2018-01-21T04:33:28.845Z,25.50
2018-01-21T04:35:29.896Z,24.47
2018-01-21T04:37:32.093Z,22.93
2018-01-21T04:39:34.052Z,22.40
2018-01-21T04:41:36.125Z,23.80
2018-01-21T04:43:37.127Z,24.97
2018-01-21T04:45:38.224Z,25.37
2018-01-21T04:47:39.259Z,24.20
2018-01-21T04:49:40.585Z,24.50
2018-01-21T04:51:41.652Z,26.80
2018-01-21T04:53:42.695Z,24.60
2018-01-21T04:55:43.680Z,26.17
2018-01-21T04:57:44.759Z,26.23
2018-01-21T04:59:45.811Z,27.10
2018-01-21T05:01:47.561Z,25.47
2018-01-21T05:03:48.649Z,26.10
2018-01-21T05:05:49.650Z,25.53
2018-01-21T05:07:50.932Z,26.87
2018-01-21T05:09:51.968Z,25.80
2018-01-21T05:11:53.166Z,26.93
2018-01-21T05:13:54.135Z,28.87
2018-01-21T05:15:55.151Z,26.67
2018-01-21T05:17:56.957Z,29.00
2018-01-21T05:19:57.979Z,28.67
2018-01-21T05:21:58.956Z,27.00
2018-01-21T05:23:59.965Z,27.90
2018-01-21T05:26:01.819Z,29.70
2018-01-21T05:28:02.804Z,28.93
2018-01-21T05:30:03.831Z,29.50
2018-01-21T05:32:04.828Z,29.60
2018-01-21T05:34:06.808Z,27.83
2018-01-21T05:36:07.798Z,29.20
2018-01-21T05:38:08.827Z,28.27
2018-01-21T05:40:09.924Z,28.60
2018-01-21T05:42:11.145Z,27.30
2018-01-21T05:44:12.442Z,27.97
2018-01-21T05:46:14.305Z,30.60
2018-01-21T05:48:15.351Z,28.47
2018-01-21T05:50:16.307Z,27.37
2018-01-21T05:52:17.334Z,29.03
2018-01-21T05:54:18.447Z,31.23
2018-01-21T05:56:19.416Z,29.40
2018-01-21T05:58:20.481Z,31.00
2018-01-21T06:00:21.483Z,29.37
2018-01-21T06:02:22.571Z,31.57
2018-01-21T06:04:23.578Z,29.93
2018-01-21T06:06:25.159Z,30.73
2018-01-21T06:08:26.199Z,32.87
2018-01-21T06:10:27.157Z,31.40
2018-01-21T06:12:28.183Z,31.20
2018-01-21T06:14:29.359Z,33.47
2018-01-21T06:16:30.418Z,32.63
2018-01-21T06:18:31.389Z,32.13
2018-01-21T06:20:32.482Z,33.10
2018-01-21T06:22:33.485Z,31.50
2018-01-21T06:24:34.462Z,33.57
2018-01-21T06:26:35.408Z,35.30
2018-01-21T06:28:36.415Z,34.23
2018-01-21T06:30:37.433Z,35.20
2018-01-21T06:32:38.471Z,36.33
2018-01-21T06:34:39.654Z,36.10
2018-01-21T06:36:40.749Z,36.00
2018-01-21T06:38:41.756Z,33.83
2018-01-21T06:40:42.791Z,34.97
2018-01-21T06:42:43.815Z,33.67
2018-01-21T06:44:45.545Z,34.60
2018-01-21T06:46:47.584Z,35.17
2018-01-21T06:48:48.692Z,34.50
2018-01-21T06:50:49.695Z,34.47
2018-01-21T06:52:50.673Z,33.17
2018-01-21T06:54:51.683Z,33.57
2018-01-21T06:56:52.727Z,33.40
2018-01-21T06:58:53.699Z,31.50
2018-01-21T07:00:54.902Z,30.83
2018-01-21T07:02:55.911Z,31.43
2018-01-21T07:04:57.037Z,31.33
2018-01-21T07:06:58.021Z,29.50
2018-01-21T07:08:58.970Z,28.97
2018-01-21T07:11:00.113Z,30.70
2018-01-21T07:13:01.072Z,28.30
2018-01-21T07:15:02.025Z,27.67
2018-01-21T07:17:03.018Z,27.73
2018-01-21T07:19:04.156Z,29.40
2018-01-21T07:21:05.232Z,26.63
2018-01-21T07:23:06.196Z,26.80
2018-01-21T07:25:08.517Z,25.40
2018-01-21T07:27:09.500Z,26.47
2018-01-21T07:29:10.579Z,28.50
2018-01-21T07:31:11.586Z,28.20
2018-01-21T07:33:12.663Z,26.83
2018-01-21T07:35:13.769Z,28.30
2018-01-21T07:37:14.731Z,26.80
2018-01-21T07:39:15.720Z,28.20
2018-01-21T07:41:17.506Z,28.87
2018-01-21T07:43:18.469Z,28.13
2018-01-21T07:45:19.519Z,27.37
2018-01-21T07:47:20.468Z,28.87
2018-01-21T07:49:21.411Z,31.40
2018-01-21T07:51:22.380Z,30.77
2018-01-21T07:53:24.064Z,31.20
2018-01-21T07:55:25.060Z,30.10
2018-01-21T07:57:26.031Z,32.83
2018-01-21T07:59:26.969Z,31.03
2018-01-21T08:01:27.912Z,33.53
2018-01-21T08:03:28.867Z,30.23
2018-01-21T08:05:29.817Z,31.57
2018-01-21T08:07:30.780Z,30.43
2018-01-21T08:09:31.716Z,32.57
2018-01-21T08:11:32.667Z,28.87
2018-01-21T08:13:33.623Z,34.20
2018-01-21T08:15:34.675Z,31.57
2018-01-21T08:17:35.621Z,33.57
2018-01-21T08:19:36.556Z,34.47
2018-01-21T08:21:37.488Z,33.23
2018-01-21T08:23:38.429Z,31.40
2018-01-21T08:25:39.372Z,35.00
2018-01-21T08:27:40.316Z,35.67
2018-01-21T08:29:41.264Z,35.10
2018-01-21T08:31:42.204Z,33.20
2018-01-21T08:33:49.297Z,32.50
2018-01-21T08:35:57.279Z,33.47
2018-01-21T08:38:04.413Z,34.80
2018-01-21T08:40:11.492Z,34.67
2018-01-21T08:42:13.220Z,35.23
2018-01-21T08:44:14.180Z,33.30
2018-01-21T08:46:15.139Z,34.07
2018-01-21T08:48:16.083Z,33.87
2018-01-21T08:50:17.032Z,34.60
2018-01-21T08:52:17.959Z,33.43
2018-01-21T08:54:18.932Z,32.20
2018-01-21T08:56:19.883Z,32.77
2018-01-21T08:58:20.829Z,33.23
2018-01-21T09:00:21.796Z,34.67
2018-01-21T09:02:22.748Z,32.17
2018-01-21T09:04:23.723Z,32.13
2018-01-21T09:06:25.423Z,33.13
2018-01-21T09:08:26.435Z,31.27
2018-01-21T09:10:27.385Z,32.80
2018-01-21T09:12:28.329Z,33.00
2018-01-21T09:14:29.276Z,32.37
2018-01-21T09:16:30.210Z,31.20
2018-01-21T09:18:31.195Z,32.93
2018-01-21T09:20:32.140Z,30.10
2018-01-21T09:22:33.092Z,30.37
2018-01-21T09:24:34.040Z,30.83
2018-01-21T09:26:34.980Z,28.77
2018-01-21T09:28:35.940Z,28.40
2018-01-21T09:30:36.912Z,28.83
2018-01-21T09:32:37.843Z,29.37
2018-01-21T09:34:38.791Z,31.80
2018-01-21T09:36:39.740Z,33.63
2018-01-21T09:38:40.679Z,30.80
2018-01-21T09:40:41.623Z,29.70
2018-01-21T09:42:42.568Z,29.70
2018-01-21T09:44:44.288Z,32.60
2018-01-21T09:46:45.270Z,32.60
2018-01-21T09:48:46.240Z,32.00
2018-01-21T09:50:47.204Z,32.20
2018-01-21T09:52:48.623Z,33.40
2018-01-21T09:54:49.571Z,30.90
2018-01-21T09:56:50.528Z,32.10
2018-01-21T09:58:51.472Z,33.50
2018-01-21T10:00:52.430Z,32.40
2018-01-21T10:02:53.375Z,33.37
2018-01-21T10:04:54.334Z,34.77
2018-01-21T10:06:55.298Z,32.03
2018-01-21T10:08:56.254Z,31.50
2018-01-21T10:10:57.187Z,31.90
2018-01-21T10:12:58.116Z,32.27
2018-01-21T10:14:59.060Z,32.13
2018-01-21T10:17:00.008Z,32.10
2018-01-21T10:19:00.960Z,33.40
2018-01-21T10:21:01.947Z,32.20
2018-01-21T10:23:02.907Z,34.83
2018-01-21T10:25:03.847Z,33.67
2018-01-21T10:27:04.800Z,34.77
2018-01-21T10:29:05.763Z,31.90
2018-01-21T10:31:06.737Z,32.47
2018-01-21T10:33:07.697Z,29.47
2018-01-21T10:35:08.669Z,32.73
2018-01-21T10:37:09.619Z,33.60
2018-01-21T10:39:10.679Z,33.30
2018-01-21T10:41:11.649Z,29.83
2018-01-21T10:43:12.641Z,30.57
2018-01-21T10:45:13.649Z,28.47
2018-01-21T10:47:14.614Z,26.23
2018-01-21T10:49:15.628Z,26.73
2018-01-21T10:51:16.621Z,26.83
2018-01-21T10:53:18.496Z,25.57
2018-01-21T10:55:19.559Z,25.20
2018-01-21T10:57:20.547Z,24.57
2018-01-21T10:59:21.560Z,24.53
2018-01-21T11:01:22.495Z,22.60
2018-01-21T11:03:23.492Z,20.23
2018-01-21T11:05:24.512Z,19.43
2018-01-21T11:07:25.511Z,22.60
2018-01-21T11:09:26.495Z,22.33
2018-01-21T11:11:27.493Z,21.93
2018-01-21T11:13:28.501Z,21.90
2018-01-21T11:15:29.491Z,22.80
2018-01-21T11:17:30.491Z,19.90
2018-01-21T11:19:31.510Z,22.50
2018-01-21T11:21:32.543Z,23.07
2018-01-21T11:23:33.515Z,21.10
2018-01-21T11:25:34.621Z,20.60
2018-01-21T11:27:35.599Z,20.33
2018-01-21T11:29:36.691Z,20.00
2018-01-21T11:31:37.634Z,17.13
2018-01-21T11:33:38.619Z,18.43
2018-01-21T11:35:39.607Z,18.70
2018-01-21T11:37:40.635Z,18.40
2018-01-21T11:39:41.622Z,18.17
2018-01-21T11:41:42.632Z,17.30
2018-01-21T11:43:43.616Z,17.00
2018-01-21T11:45:45.295Z,16.57
2018-01-21T11:47:46.239Z,16.87
2018-01-21T11:49:47.172Z,15.83
2018-01-21T11:51:48.159Z,16.40
2018-01-21T11:53:49.164Z,17.17
2018-01-21T11:55:50.831Z,16.17
2018-01-21T11:57:51.790Z,16.63
2018-01-21T11:59:52.780Z,15.60
2018-01-21T12:01:53.812Z,15.40
2018-01-21T12:03:54.780Z,15.43
2018-01-21T12:05:55.780Z,15.07
2018-01-21T12:07:56.795Z,16.53
2018-01-21T12:09:57.804Z,15.73
2018-01-21T12:11:59.551Z,16.50
2018-01-21T12:14:00.520Z,15.83
2018-01-21T12:16:01.479Z,17.40
2018-01-21T12:18:02.451Z,17.07
2018-01-21T12:20:03.492Z,15.87
2018-01-21T12:22:04.487Z,16.67
2018-01-21T12:24:05.459Z,16.03
2018-01-21T12:26:06.478Z,18.40
2018-01-21T12:28:07.649Z,16.77
2018-01-21T12:30:08.587Z,16.33
2018-01-21T12:32:09.548Z,16.37
2018-01-21T12:34:10.574Z,16.23
2018-01-21T12:36:11.592Z,17.33
2018-01-21T12:38:12.600Z,16.80
2018-01-21T12:40:14.420Z,15.77
2018-01-21T12:42:15.416Z,17.27
2018-01-21T12:44:16.448Z,15.27
2018-01-21T12:46:17.416Z,15.10
2018-01-21T12:48:18.419Z,16.20
2018-01-21T12:50:19.468Z,16.20
2018-01-21T12:52:20.450Z,15.27
2018-01-21T12:54:21.471Z,15.20
2018-01-21T12:56:22.436Z,14.20
2018-01-21T12:58:23.389Z,14.30
2018-01-21T13:00:24.365Z,13.33
2018-01-21T13:02:25.316Z,14.40
2018-01-21T13:04:26.357Z,14.20
2018-01-21T13:06:27.363Z,15.70
2018-01-21T13:08:28.380Z,12.47
2018-01-21T13:10:29.339Z,12.47
2018-01-21T13:12:30.271Z,12.70
2018-01-21T13:14:31.274Z,14.20
2018-01-21T13:16:32.295Z,14.00
2018-01-21T13:18:33.323Z,14.47
2018-01-21T13:20:34.505Z,14.20
2018-01-21T13:22:35.505Z,14.57
2018-01-21T13:24:36.501Z,14.23
2018-01-21T13:26:37.454Z,13.87
2018-01-21T13:28:38.461Z,13.90
2018-01-21T13:30:39.495Z,14.93
2018-01-21T13:32:40.517Z,15.00
2018-01-21T13:34:41.526Z,14.83
2018-01-21T13:36:42.479Z,14.40
2018-01-21T13:38:44.463Z,13.00
2018-01-21T13:40:45.440Z,14.17
2018-01-21T13:42:46.477Z,15.40
2018-01-21T13:44:47.504Z,15.10
2018-01-21T13:46:48.503Z,12.87
2018-01-21T13:48:49.557Z,13.60
2018-01-21T13:50:50.591Z,14.70
2018-01-21T13:52:51.614Z,12.53
2018-01-21T13:54:52.708Z,14.47
2018-01-21T13:56:53.714Z,12.70
2018-01-21T13:58:54.700Z,13.10
2018-01-21T14:00:55.669Z,13.83
2018-01-21T14:02:56.607Z,14.20
2018-01-21T14:04:57.615Z,13.60
2018-01-21T14:06:58.584Z,14.17
2018-01-21T14:08:59.590Z,15.47
2018-01-21T14:11:00.607Z,15.17
2018-01-21T14:13:01.604Z,13.20
2018-01-21T14:15:02.608Z,14.17
2018-01-21T14:17:03.648Z,13.00
2018-01-21T14:19:04.678Z,14.20
2018-01-21T14:21:05.704Z,14.90
2018-01-21T14:23:06.680Z,15.10
2018-01-21T14:25:07.716Z,14.07
2018-01-21T14:27:08.740Z,14.07
2018-01-21T14:29:09.789Z,14.57
2018-01-21T14:31:10.807Z,15.37
2018-01-21T14:33:11.798Z,15.73
2018-01-21T14:35:12.759Z,15.97
2018-01-21T14:37:13.821Z,15.30
2018-01-21T14:39:14.778Z,16.67
2018-01-21T14:41:15.843Z,15.37
2018-01-21T14:43:16.816Z,16.07
2018-01-21T14:45:17.777Z,14.43
2018-01-21T14:47:18.820Z,16.23
2018-01-21T14:49:19.816Z,15.57
2018-01-21T14:51:20.761Z,13.23
2018-01-21T14:53:21.768Z,15.33
2018-01-21T14:55:22.783Z,14.97
2018-01-21T14:57:23.846Z,15.20
2018-01-21T14:59:24.949Z,14.30
2018-01-21T15:01:25.903Z,14.80
2018-01-21T15:03:26.917Z,14.80
2018-01-21T15:05:27.924Z,15.70
2018-01-21T15:07:28.951Z,15.90
2018-01-21T15:09:29.957Z,16.17
2018-01-21T15:11:31.034Z,16.13
2018-01-21T15:13:32.092Z,15.80
2018-01-21T15:15:33.099Z,15.70
2018-01-21T15:17:34.107Z,15.77
2018-01-21T15:19:35.125Z,14.30
2018-01-21T15:21:36.167Z,14.33
2018-01-21T15:23:37.148Z,15.37
2018-01-21T15:25:38.204Z,15.77
2018-01-21T15:27:39.217Z,15.83
2018-01-21T15:29:40.229Z,16.90
2018-01-21T15:31:41.200Z,16.43
2018-01-21T15:33:42.202Z,20.07
2018-01-21T15:35:43.195Z,16.60
2018-01-21T15:37:44.240Z,16.57
2018-01-21T15:39:45.247Z,16.20
2018-01-21T15:41:46.220Z,15.50
2018-01-21T15:43:47.231Z,17.00
2018-01-21T15:45:48.277Z,15.27
2018-01-21T15:47:49.326Z,15.27
2018-01-21T15:49:50.302Z,15.20
2018-01-21T15:51:51.265Z,17.50
2018-01-21T15:53:52.299Z,17.03
2018-01-21T15:55:53.331Z,16.40
2018-01-21T15:57:54.305Z,14.70
2018-01-21T15:59:55.332Z,16.37
2018-01-21T16:01:56.341Z,15.93
2018-01-21T16:03:57.440Z,12.43
2018-01-21T16:05:58.408Z,12.10
2018-01-21T16:08:00.181Z,11.77
2018-01-21T16:10:01.213Z,10.83
2018-01-21T16:12:02.225Z,9.97
2018-01-21T16:14:03.282Z,10.40
2018-01-21T16:16:04.215Z,10.17
2018-01-21T16:18:05.205Z,9.83
2018-01-21T16:20:06.156Z,10.13
2018-01-21T16:22:07.155Z,8.80
2018-01-21T16:24:08.097Z,10.13
2018-01-21T16:26:09.202Z,9.10
2018-01-21T16:28:10.254Z,10.70
2018-01-21T16:30:11.198Z,11.17
2018-01-21T16:32:12.157Z,11.47
2018-01-21T16:34:13.186Z,10.90
2018-01-21T16:36:14.223Z,11.47
2018-01-21T16:38:27.507Z,10.73
2018-01-21T16:40:28.472Z,10.30
2018-01-21T16:42:29.460Z,12.10
2018-01-21T16:44:30.423Z,15.57
2018-01-21T16:46:31.460Z,11.57
2018-01-21T16:48:32.468Z,13.23
2018-01-21T16:50:33.484Z,12.67
2018-01-21T16:52:34.515Z,14.90
2018-01-21T16:54:35.522Z,14.90
2018-01-21T16:56:36.551Z,14.90
2018-01-21T16:58:37.504Z,15.27
2018-01-21T17:00:38.492Z,14.10
2018-01-21T17:02:39.471Z,14.60
2018-01-21T17:04:40.419Z,15.37
2018-01-21T17:06:41.379Z,17.63
2018-01-21T17:08:42.319Z,19.20
2018-01-21T17:10:44.064Z,19.40
2018-01-21T17:12:45.050Z,19.07
2018-01-21T17:14:46.036Z,19.30
2018-01-21T17:16:47.028Z,21.17
2018-01-21T17:18:48.010Z,23.40
2018-01-21T17:20:49.050Z,22.43
2018-01-21T17:22:50.027Z,21.80
2018-01-21T17:24:51.009Z,21.63
2018-01-21T17:26:52.014Z,19.90
2018-01-21T17:28:53.012Z,21.50
2018-01-21T17:30:54.021Z,22.20
2018-01-21T17:32:55.042Z,19.30
2018-01-21T17:34:56.024Z,21.80
2018-01-21T17:36:57.010Z,21.23
2018-01-21T17:38:57.999Z,18.43
2018-01-21T17:40:59.064Z,18.00
2018-01-21T17:43:00.056Z,13.77
2018-01-21T17:45:01.024Z,14.43
2018-01-21T17:47:02.095Z,20.27
2018-01-21T17:49:03.105Z,21.73
2018-01-21T17:51:04.088Z,18.20
2018-01-21T17:53:05.092Z,16.90
2018-01-21T17:55:06.088Z,16.50
2018-01-21T17:57:07.108Z,12.90
2018-01-21T17:59:08.063Z,13.20
2018-01-21T18:01:09.073Z,12.87
2018-01-21T18:03:10.087Z,13.97
2018-01-21T18:05:11.092Z,12.90
2018-01-21T18:07:12.060Z,12.07
2018-01-21T18:09:12.996Z,13.50
2018-01-21T18:11:13.958Z,10.97
2018-01-21T18:13:14.961Z,13.67
2018-01-21T18:15:15.990Z,12.77
2018-01-21T18:17:16.991Z,13.93
2018-01-21T18:19:17.995Z,12.87
2018-01-21T18:21:18.967Z,13.87
2018-01-21T18:23:19.983Z,11.67
2018-01-21T18:25:20.972Z,12.57
2018-01-21T18:27:21.987Z,12.87
2018-01-21T18:29:22.935Z,12.13
2018-01-21T18:31:23.931Z,10.40
2018-01-21T18:33:24.923Z,12.33
2018-01-21T18:35:25.911Z,11.77
2018-01-21T18:37:26.895Z,12.70
2018-01-21T18:39:27.926Z,10.87
2018-01-21T18:41:28.924Z,11.90
2018-01-21T18:43:29.911Z,12.33
2018-01-21T18:45:30.868Z,11.10
2018-01-21T18:47:31.862Z,11.50
2018-01-21T18:49:32.856Z,9.80
2018-01-21T18:51:33.895Z,10.67
2018-01-21T18:53:34.887Z,11.63
2018-01-21T18:55:35.861Z,11.53
2018-01-21T18:57:36.871Z,11.37
2018-01-21T18:59:38.631Z,12.00
2018-01-21T19:01:39.651Z,12.33
2018-01-21T19:03:40.617Z,11.63
2018-01-21T19:05:41.561Z,11.30
2018-01-21T19:07:42.507Z,12.10
2018-01-21T19:09:43.447Z,12.10
2018-01-21T19:11:44.479Z,12.07
2018-01-21T19:13:45.479Z,14.20
2018-01-21T19:15:46.477Z,15.57
2018-01-21T19:17:47.491Z,15.70
2018-01-21T19:19:48.476Z,15.37
2018-01-21T19:21:49.539Z,15.20
2018-01-21T19:23:50.567Z,15.70
2018-01-21T19:25:51.504Z,15.73
2018-01-21T19:27:52.499Z,15.00
2018-01-21T19:29:53.502Z,16.57
2018-01-21T19:31:54.455Z,15.13
2018-01-21T19:33:55.395Z,14.90
2018-01-21T19:35:56.332Z,13.47
2018-01-21T19:37:57.352Z,14.60
2018-01-21T19:43:10.895Z,20.80
2018-01-21T19:45:11.857Z,24.63
2018-01-21T19:47:12.914Z,19.30
2018-01-21T19:49:14.003Z,31.13
2018-01-21T19:51:15.026Z,30.80
2018-01-21T19:53:17.177Z,21.37
2018-01-21T19:55:18.203Z,17.80
2018-01-21T19:57:19.160Z,17.07
2018-01-21T19:59:20.141Z,16.70
2018-01-21T20:01:21.148Z,17.73
2018-01-21T20:03:22.187Z,15.37
2018-01-21T20:05:23.235Z,17.33
2018-01-21T20:07:24.187Z,18.63
2018-01-21T20:09:25.156Z,19.83
2018-01-21T20:11:26.092Z,18.50
2018-01-21T20:13:27.172Z,15.20
2018-01-21T20:15:28.139Z,16.27
2018-01-21T20:17:29.108Z,15.50
2018-01-21T20:19:30.084Z,14.70
2018-01-21T20:21:31.053Z,13.53
2018-01-21T20:23:32.093Z,15.47
2018-01-21T20:25:33.151Z,12.37
2018-01-21T20:27:34.811Z,15.60
2018-01-21T20:29:35.880Z,15.80
2018-01-21T20:31:36.875Z,16.97
2018-01-21T20:33:37.898Z,15.40
2018-01-21T20:35:38.842Z,18.90
2018-01-21T20:37:39.845Z,15.83
2018-01-21T20:39:40.869Z,14.27
2018-01-21T20:41:41.872Z,16.13
2018-01-21T20:43:42.915Z,16.37
2018-01-21T20:45:43.936Z,16.37
2018-01-21T20:47:44.939Z,17.93
2018-01-21T20:49:45.971Z,17.13
2018-01-21T20:51:53.082Z,17.73
2018-01-21T20:54:00.213Z,16.23
2018-01-21T20:56:01.197Z,16.70
2018-01-21T20:58:02.207Z,15.10
2018-01-21T21:00:03.243Z,15.50
2018-01-21T21:02:04.260Z,15.80
2018-01-21T21:04:05.308Z,16.50
2018-01-21T21:06:06.408Z,17.70
2018-01-21T21:08:07.380Z,19.20
2018-01-21T21:10:08.388Z,19.57
2018-01-21T21:12:09.442Z,21.97
2018-01-21T21:14:10.459Z,20.83
2018-01-21T21:16:11.479Z,18.70
2018-01-21T21:18:12.452Z,19.90
2018-01-21T21:20:14.252Z,17.80
2018-01-21T21:22:15.254Z,19.57
2018-01-21T21:24:16.240Z,18.47
2018-01-21T21:26:17.219Z,19.73
2018-01-21T21:28:18.221Z,13.57
2018-01-21T21:30:19.189Z,20.50
2018-01-21T21:32:20.203Z,19.93
2018-01-21T21:34:21.277Z,19.30
2018-01-21T21:36:22.258Z,18.40
2018-01-21T21:38:23.554Z,19.77
2018-01-21T21:40:24.583Z,17.97
2018-01-21T21:42:25.634Z,17.70
2018-01-21T21:44:29.059Z,17.00
2018-01-21T21:46:30.110Z,17.57
2018-01-21T21:48:32.115Z,16.37
2018-01-21T21:50:33.626Z,13.77
2018-01-21T21:52:34.575Z,16.80
2018-01-21T21:54:36.364Z,19.67
2018-01-21T21:56:37.394Z,16.20
2018-01-21T21:58:38.578Z,15.80
2018-01-21T22:00:39.726Z,16.60
2018-01-21T22:02:40.687Z,16.50
2018-01-21T22:04:41.772Z,17.37
2018-01-21T22:06:42.943Z,16.90
2018-01-21T22:08:44.028Z,17.17
2018-01-21T22:13:22.567Z,14.67
2018-01-21T22:15:23.797Z,15.63
2018-01-21T22:17:25.563Z,18.73
2018-01-21T22:19:30.318Z,19.03
2018-01-21T22:21:32.339Z,17.47
2018-01-21T22:23:33.408Z,17.67
2018-01-21T22:25:34.475Z,18.30
2018-01-21T22:27:36.431Z,17.00
2018-01-21T22:29:37.499Z,17.43
2018-01-21T22:31:38.619Z,18.00
2018-01-21T22:33:39.753Z,17.40
2018-01-21T22:35:41.088Z,18.30
2018-01-21T22:37:42.338Z,15.80
2018-01-21T22:39:44.807Z,16.67
2018-01-21T22:41:45.807Z,18.40
2018-01-21T22:43:46.821Z,18.57
2018-01-21T22:45:47.920Z,17.40
2018-01-21T22:47:49.034Z,16.40
2018-01-21T22:49:50.215Z,17.07
2018-01-21T22:51:51.415Z,17.77
2018-01-21T22:53:52.551Z,16.30
2018-01-21T22:55:53.567Z,15.70
2018-01-21T22:57:54.902Z,16.20
2018-01-21T22:59:56.282Z,17.80
2018-01-21T23:04:03.105Z,17.90
2018-01-21T23:06:04.171Z,16.30
2018-01-21T23:08:05.240Z,16.80
2018-01-21T23:10:06.248Z,18.10
2018-01-21T23:12:07.299Z,16.60
2018-01-21T23:14:08.275Z,16.73
2018-01-21T23:16:10.142Z,17.97
2018-01-21T23:18:11.154Z,17.37
2018-01-21T23:20:12.304Z,16.03
2018-01-21T23:22:14.457Z,16.07
2018-01-21T23:24:15.571Z,16.57
2018-01-21T23:26:16.681Z,19.47
2018-01-21T23:28:17.877Z,18.70
2018-01-21T23:30:19.004Z,16.23
2018-01-21T23:32:19.942Z,18.50
2018-01-21T23:34:21.711Z,16.27
2018-01-21T23:36:22.888Z,17.53
2018-01-21T23:38:23.899Z,17.10
2018-01-21T23:40:24.914Z,16.50
2018-01-21T23:42:26.048Z,18.10
2018-01-21T23:44:27.163Z,18.80
2018-01-21T23:46:28.339Z,18.60
2018-01-21T23:48:29.311Z,18.03
2018-01-21T23:50:31.286Z,18.90
2018-01-21T23:52:32.364Z,18.77
2018-01-21T23:54:34.533Z,17.27
2018-01-21T23:56:36.997Z,19.37
2018-01-21T23:58:39.663Z,18.30
